<?xml version="1.0" encoding="utf-8"?>
<gpx xmlns:xsi="http://www.w3.org/2001/XMLSchema-instance" xmlns:xsd="http://www.w3.org/2001/XMLSchema" version="1.1" creator="Shapelink.com" xmlns="http://www.topografix.com/GPX/1/1" xmlns:gpxtpx="http://www.garmin.com/xmlschemas/TrackPointExtension/v1">
  <metadata>
    <name>Cycling 10.69 km, 2020-06-26</name>
    <desc></desc>
    <author><name>Marian Moron</name></author> 
    <time>2020-06-26T18:48:03Z</time>
  </metadata>
  <trk>
    <name>Cycling 10.69 km, 2020-06-26</name>
    <trkseg>
      <trkpt lat="51.228666069656" lon="4.449311422487">
        <ele>3.2</ele>
        <time>2020-06-26T18:48:03Z</time>
      </trkpt>
      <trkpt lat="51.228788026301" lon="4.448924681621">
        <ele>12.6</ele>
        <time>2020-06-26T18:48:37Z</time>
      </trkpt>
      <trkpt lat="51.22896413002" lon="4.448607678163">
        <ele>10.4</ele>
        <time>2020-06-26T18:48:50Z</time>
      </trkpt>
      <trkpt lat="51.22873698053" lon="4.448105937629">
        <ele>8.2</ele>
        <time>2020-06-26T18:49:09Z</time>
      </trkpt>
      <trkpt lat="51.22839751358" lon="4.4474026124">
        <ele>9.6</ele>
        <time>2020-06-26T18:49:32Z</time>
      </trkpt>
      <trkpt lat="51.22825166852" lon="4.447340334883">
        <ele>6.6</ele>
        <time>2020-06-26T18:49:37Z</time>
      </trkpt>
      <trkpt lat="51.227807008725" lon="4.447865460918">
        <ele>6.2</ele>
        <time>2020-06-26T18:49:58Z</time>
      </trkpt>
      <trkpt lat="51.227402749688" lon="4.448476669066">
        <ele>5.8</ele>
        <time>2020-06-26T18:50:18Z</time>
      </trkpt>
      <trkpt lat="51.227042327988" lon="4.449106401213">
        <ele>8.6</ele>
        <time>2020-06-26T18:50:36Z</time>
      </trkpt>
      <trkpt lat="51.226600266582" lon="4.449559694365">
        <ele>7</ele>
        <time>2020-06-26T18:50:57Z</time>
      </trkpt>
      <trkpt lat="51.226415110411" lon="4.449886420827">
        <ele>6.2</ele>
        <time>2020-06-26T18:51:09Z</time>
      </trkpt>
      <trkpt lat="51.226353671084" lon="4.449854904883">
        <ele>6.2</ele>
        <time>2020-06-26T18:51:12Z</time>
      </trkpt>
      <trkpt lat="51.22592988222" lon="4.450396962356">
        <ele>5.8</ele>
        <time>2020-06-26T18:51:30Z</time>
      </trkpt>
      <trkpt lat="51.225521516052" lon="4.450974894361">
        <ele>5.6</ele>
        <time>2020-06-26T18:51:47Z</time>
      </trkpt>
      <trkpt lat="51.225213984141" lon="4.451695570123">
        <ele>8.6</ele>
        <time>2020-06-26T18:52:05Z</time>
      </trkpt>
      <trkpt lat="51.224991863791" lon="4.452490677157">
        <ele>5</ele>
        <time>2020-06-26T18:52:24Z</time>
      </trkpt>
      <trkpt lat="51.224878875779" lon="4.453366166612">
        <ele>3.2</ele>
        <time>2020-06-26T18:52:42Z</time>
      </trkpt>
      <trkpt lat="51.224899327615" lon="4.454250205605">
        <ele>3.6</ele>
        <time>2020-06-26T18:52:59Z</time>
      </trkpt>
      <trkpt lat="51.224811233846" lon="4.454434272129">
        <ele>3.4</ele>
        <time>2020-06-26T18:53:05Z</time>
      </trkpt>
      <trkpt lat="51.224264733966" lon="4.454541560449">
        <ele>13.8</ele>
        <time>2020-06-26T18:53:25Z</time>
      </trkpt>
      <trkpt lat="51.224245455596" lon="4.45453058016">
        <ele>13.6</ele>
        <time>2020-06-26T18:54:00Z</time>
      </trkpt>
      <trkpt lat="51.22426942783" lon="4.454614902074">
        <ele>14</ele>
        <time>2020-06-26T18:56:49Z</time>
      </trkpt>
      <trkpt lat="51.224302368697" lon="4.454623032517">
        <ele>14</ele>
        <time>2020-06-26T18:56:52Z</time>
      </trkpt>
      <trkpt lat="51.224376967607" lon="4.454600652844">
        <ele>11.2</ele>
        <time>2020-06-26T18:57:06Z</time>
      </trkpt>
      <trkpt lat="51.224786255784" lon="4.454694781581">
        <ele>7.6</ele>
        <time>2020-06-26T18:57:21Z</time>
      </trkpt>
      <trkpt lat="51.224763289378" lon="4.455590303777">
        <ele>10.6</ele>
        <time>2020-06-26T18:57:45Z</time>
      </trkpt>
      <trkpt lat="51.224606715486" lon="4.456452717468">
        <ele>14.8</ele>
        <time>2020-06-26T18:58:05Z</time>
      </trkpt>
      <trkpt lat="51.224272445314" lon="4.457141290553">
        <ele>18.8</ele>
        <time>2020-06-26T18:58:27Z</time>
      </trkpt>
      <trkpt lat="51.22382518713" lon="4.457621741061">
        <ele>20.2</ele>
        <time>2020-06-26T18:58:45Z</time>
      </trkpt>
      <trkpt lat="51.223341970595" lon="4.458065059752">
        <ele>11.4</ele>
        <time>2020-06-26T18:59:05Z</time>
      </trkpt>
      <trkpt lat="51.222907788175" lon="4.458580127507">
        <ele>16.2</ele>
        <time>2020-06-26T18:59:27Z</time>
      </trkpt>
      <trkpt lat="51.222637136624" lon="4.458732342811">
        <ele>6.8</ele>
        <time>2020-06-26T19:00:56Z</time>
      </trkpt>
      <trkpt lat="51.222157524306" lon="4.459153114191">
        <ele>8.4</ele>
        <time>2020-06-26T19:01:20Z</time>
      </trkpt>
      <trkpt lat="51.221735830917" lon="4.458820017485">
        <ele>11.8</ele>
        <time>2020-06-26T19:01:41Z</time>
      </trkpt>
      <trkpt lat="51.221606833476" lon="4.457945030944">
        <ele>5.8</ele>
        <time>2020-06-26T19:01:58Z</time>
      </trkpt>
      <trkpt lat="51.221597948662" lon="4.457070379679">
        <ele>3.6</ele>
        <time>2020-06-26T19:02:16Z</time>
      </trkpt>
      <trkpt lat="51.221481104976" lon="4.456343501311">
        <ele>0.6</ele>
        <time>2020-06-26T19:02:41Z</time>
      </trkpt>
      <trkpt lat="51.220914823812" lon="4.45637040721">
        <ele>0</ele>
        <time>2020-06-26T19:03:07Z</time>
      </trkpt>
      <trkpt lat="51.220362205145" lon="4.456451041088">
        <ele>10.6</ele>
        <time>2020-06-26T19:03:25Z</time>
      </trkpt>
      <trkpt lat="51.220343429689" lon="4.456413825452">
        <ele>11.4</ele>
        <time>2020-06-26T19:03:26Z</time>
      </trkpt>
      <trkpt lat="51.220121560796" lon="4.455624753386">
        <ele>6</ele>
        <time>2020-06-26T19:03:40Z</time>
      </trkpt>
      <trkpt lat="51.220052410121" lon="4.455559709842">
        <ele>7.4</ele>
        <time>2020-06-26T19:03:48Z</time>
      </trkpt>
      <trkpt lat="51.219986612206" lon="4.455539258006">
        <ele>14.2</ele>
        <time>2020-06-26T19:03:56Z</time>
      </trkpt>
      <trkpt lat="51.219881754637" lon="4.455202976178">
        <ele>23.2</ele>
        <time>2020-06-26T19:04:11Z</time>
      </trkpt>
      <trkpt lat="51.219959873945" lon="4.455368434884">
        <ele>49</ele>
        <time>2020-06-26T19:10:34Z</time>
      </trkpt>
      <trkpt lat="51.219935314978" lon="4.455299703304">
        <ele>49</ele>
        <time>2020-06-26T19:10:36Z</time>
      </trkpt>
      <trkpt lat="51.219835318911" lon="4.45430343067">
        <ele>48.8</ele>
        <time>2020-06-26T19:10:51Z</time>
      </trkpt>
      <trkpt lat="51.219444973828" lon="4.453856423943">
        <ele>47.2</ele>
        <time>2020-06-26T19:11:04Z</time>
      </trkpt>
      <trkpt lat="51.218964104225" lon="4.454282643558">
        <ele>37.2</ele>
        <time>2020-06-26T19:11:20Z</time>
      </trkpt>
      <trkpt lat="51.218490023961" lon="4.454717077435">
        <ele>13.8</ele>
        <time>2020-06-26T19:11:41Z</time>
      </trkpt>
      <trkpt lat="51.218125076035" lon="4.455313784896">
        <ele>3.6</ele>
        <time>2020-06-26T19:12:10Z</time>
      </trkpt>
      <trkpt lat="51.218103786009" lon="4.456194806405">
        <ele>4.2</ele>
        <time>2020-06-26T19:12:34Z</time>
      </trkpt>
      <trkpt lat="51.218072605341" lon="4.457061327227">
        <ele>6.6</ele>
        <time>2020-06-26T19:12:53Z</time>
      </trkpt>
      <trkpt lat="51.218014518774" lon="4.457945785315">
        <ele>7.2</ele>
        <time>2020-06-26T19:13:13Z</time>
      </trkpt>
      <trkpt lat="51.217999179897" lon="4.458838625303">
        <ele>9.4</ele>
        <time>2020-06-26T19:13:34Z</time>
      </trkpt>
      <trkpt lat="51.217960120243" lon="4.459719730631">
        <ele>8</ele>
        <time>2020-06-26T19:13:52Z</time>
      </trkpt>
      <trkpt lat="51.217920725313" lon="4.460576779906">
        <ele>6</ele>
        <time>2020-06-26T19:14:08Z</time>
      </trkpt>
      <trkpt lat="51.217883174401" lon="4.461422848892">
        <ele>2.6</ele>
        <time>2020-06-26T19:14:28Z</time>
      </trkpt>
      <trkpt lat="51.217800025953" lon="4.462283586203">
        <ele>0.4</ele>
        <time>2020-06-26T19:14:50Z</time>
      </trkpt>
      <trkpt lat="51.217761636851" lon="4.46314046784">
        <ele>0</ele>
        <time>2020-06-26T19:15:10Z</time>
      </trkpt>
      <trkpt lat="51.217738167531" lon="4.46402978743">
        <ele>1.8</ele>
        <time>2020-06-26T19:15:32Z</time>
      </trkpt>
      <trkpt lat="51.217697096221" lon="4.464922795056">
        <ele>0.8</ele>
        <time>2020-06-26T19:15:52Z</time>
      </trkpt>
      <trkpt lat="51.217662143698" lon="4.465790656982">
        <ele>1.6</ele>
        <time>2020-06-26T19:16:10Z</time>
      </trkpt>
      <trkpt lat="51.217659880585" lon="4.466680898581">
        <ele>0.2</ele>
        <time>2020-06-26T19:16:27Z</time>
      </trkpt>
      <trkpt lat="51.217639428749" lon="4.466763627934">
        <ele>0</ele>
        <time>2020-06-26T19:16:30Z</time>
      </trkpt>
      <trkpt lat="51.2176250957" lon="4.466870329521">
        <ele>0</ele>
        <time>2020-06-26T19:18:05Z</time>
      </trkpt>
      <trkpt lat="51.217625598614" lon="4.466914418315">
        <ele>0</ele>
        <time>2020-06-26T19:18:07Z</time>
      </trkpt>
      <trkpt lat="51.217577402689" lon="4.467791500331">
        <ele>0</ele>
        <time>2020-06-26T19:18:38Z</time>
      </trkpt>
      <trkpt lat="51.217518980846" lon="4.468649220158">
        <ele>0</ele>
        <time>2020-06-26T19:19:02Z</time>
      </trkpt>
      <trkpt lat="51.217489644196" lon="4.469509119279">
        <ele>0</ele>
        <time>2020-06-26T19:19:27Z</time>
      </trkpt>
      <trkpt lat="51.217407501576" lon="4.470369521314">
        <ele>11.2</ele>
        <time>2020-06-26T19:19:51Z</time>
      </trkpt>
      <trkpt lat="51.21734346386" lon="4.471243921122">
        <ele>9</ele>
        <time>2020-06-26T19:20:12Z</time>
      </trkpt>
      <trkpt lat="51.217306080586" lon="4.472113878523">
        <ele>9.4</ele>
        <time>2020-06-26T19:20:34Z</time>
      </trkpt>
      <trkpt lat="51.217319240169" lon="4.472975956938">
        <ele>4.2</ele>
        <time>2020-06-26T19:20:54Z</time>
      </trkpt>
      <trkpt lat="51.217267607665" lon="4.473851614031">
        <ele>4.6</ele>
        <time>2020-06-26T19:21:16Z</time>
      </trkpt>
      <trkpt lat="51.217228212735" lon="4.474742610001">
        <ele>3.8</ele>
        <time>2020-06-26T19:21:40Z</time>
      </trkpt>
      <trkpt lat="51.217191248556" lon="4.475605275149">
        <ele>1.8</ele>
        <time>2020-06-26T19:22:00Z</time>
      </trkpt>
      <trkpt lat="51.21715068016" lon="4.476480094052">
        <ele>4.2</ele>
        <time>2020-06-26T19:22:20Z</time>
      </trkpt>
      <trkpt lat="51.217137185301" lon="4.476821572658">
        <ele>3.6</ele>
        <time>2020-06-26T19:22:28Z</time>
      </trkpt>
      <trkpt lat="51.217163001553" lon="4.476941852923">
        <ele>0</ele>
        <time>2020-06-26T19:24:57Z</time>
      </trkpt>
      <trkpt lat="51.217147830314" lon="4.477018714946">
        <ele>0</ele>
        <time>2020-06-26T19:25:01Z</time>
      </trkpt>
      <trkpt lat="51.217094102335" lon="4.477910716744">
        <ele>0</ele>
        <time>2020-06-26T19:25:24Z</time>
      </trkpt>
      <trkpt lat="51.217073818137" lon="4.478774974453">
        <ele>0</ele>
        <time>2020-06-26T19:25:41Z</time>
      </trkpt>
      <trkpt lat="51.217041044908" lon="4.479650883003">
        <ele>0</ele>
        <time>2020-06-26T19:25:58Z</time>
      </trkpt>
      <trkpt lat="51.217007098213" lon="4.480506842631">
        <ele>2.2</ele>
        <time>2020-06-26T19:26:21Z</time>
      </trkpt>
      <trkpt lat="51.216995950286" lon="4.481383757009">
        <ele>1.4</ele>
        <time>2020-06-26T19:26:47Z</time>
      </trkpt>
      <trkpt lat="51.216975163174" lon="4.481559441633">
        <ele>0.6</ele>
        <time>2020-06-26T19:26:52Z</time>
      </trkpt>
      <trkpt lat="51.216994106268" lon="4.481838139808">
        <ele>0</ele>
        <time>2020-06-26T19:28:22Z</time>
      </trkpt>
      <trkpt lat="51.21705847926" lon="4.482159753311">
        <ele>0</ele>
        <time>2020-06-26T19:28:33Z</time>
      </trkpt>
      <trkpt lat="51.217594837041" lon="4.481915840021">
        <ele>0.6</ele>
        <time>2020-06-26T19:28:56Z</time>
      </trkpt>
      <trkpt lat="51.218115604488" lon="4.481669831256">
        <ele>1.2</ele>
        <time>2020-06-26T19:29:18Z</time>
      </trkpt>
      <trkpt lat="51.218634192641" lon="4.481393815289">
        <ele>0</ele>
        <time>2020-06-26T19:29:46Z</time>
      </trkpt>
      <trkpt lat="51.219134927347" lon="4.481055605624">
        <ele>7.2</ele>
        <time>2020-06-26T19:30:09Z</time>
      </trkpt>
      <trkpt lat="51.219398789559" lon="4.481094665278">
        <ele>6.8</ele>
        <time>2020-06-26T19:30:19Z</time>
      </trkpt>
      <trkpt lat="51.219502473662" lon="4.481062143506">
        <ele>6</ele>
        <time>2020-06-26T19:30:27Z</time>
      </trkpt>
      <trkpt lat="51.21954790356" lon="4.481084355541">
        <ele>5.2</ele>
        <time>2020-06-26T19:31:26Z</time>
      </trkpt>
      <trkpt lat="51.219560392591" lon="4.48107857203">
        <ele>5.4</ele>
        <time>2020-06-26T19:31:27Z</time>
      </trkpt>
      <trkpt lat="51.22005919946" lon="4.480734495035">
        <ele>0</ele>
        <time>2020-06-26T19:31:50Z</time>
      </trkpt>
      <trkpt lat="51.220563706021" lon="4.480425789658">
        <ele>4.4</ele>
        <time>2020-06-26T19:32:06Z</time>
      </trkpt>
      <trkpt lat="51.221089754065" lon="4.480130411502">
        <ele>0.4</ele>
        <time>2020-06-26T19:32:23Z</time>
      </trkpt>
      <trkpt lat="51.221572802962" lon="4.480002755165">
        <ele>0</ele>
        <time>2020-06-26T19:32:40Z</time>
      </trkpt>
      <trkpt lat="51.221592584246" lon="4.480168549147">
        <ele>0</ele>
        <time>2020-06-26T19:33:05Z</time>
      </trkpt>
      <trkpt lat="51.221971278488" lon="4.480831389799">
        <ele>0</ele>
        <time>2020-06-26T19:33:25Z</time>
      </trkpt>
      <trkpt lat="51.222456506679" lon="4.481219723226">
        <ele>4.2</ele>
        <time>2020-06-26T19:33:42Z</time>
      </trkpt>
      <trkpt lat="51.223026475879" lon="4.481164654143">
        <ele>2.4</ele>
        <time>2020-06-26T19:34:01Z</time>
      </trkpt>
      <trkpt lat="51.223575322691" lon="4.480977821592">
        <ele>11.2</ele>
        <time>2020-06-26T19:34:17Z</time>
      </trkpt>
      <trkpt lat="51.224109501178" lon="4.480724101479">
        <ele>19</ele>
        <time>2020-06-26T19:34:33Z</time>
      </trkpt>
      <trkpt lat="51.225065540692" lon="4.480586722138">
        <ele>7.2</ele>
        <time>2020-06-26T19:35:02Z</time>
      </trkpt>
      <trkpt lat="51.225599383903" lon="4.480846309581">
        <ele>6.2</ele>
        <time>2020-06-26T19:35:20Z</time>
      </trkpt>
      <trkpt lat="51.226029207735" lon="4.481384259923">
        <ele>5.4</ele>
        <time>2020-06-26T19:35:40Z</time>
      </trkpt>
      <trkpt lat="51.226491050425" lon="4.481856244712">
        <ele>2</ele>
        <time>2020-06-26T19:36:00Z</time>
      </trkpt>
      <trkpt lat="51.226949707993" lon="4.482381873661">
        <ele>0</ele>
        <time>2020-06-26T19:36:18Z</time>
      </trkpt>
      <trkpt lat="51.227440468238" lon="4.482760903179">
        <ele>0</ele>
        <time>2020-06-26T19:36:39Z</time>
      </trkpt>
      <trkpt lat="51.228002390814" lon="4.482847404387">
        <ele>0</ele>
        <time>2020-06-26T19:36:59Z</time>
      </trkpt>
      <trkpt lat="51.228550231798" lon="4.482849416043">
        <ele>0</ele>
        <time>2020-06-26T19:37:16Z</time>
      </trkpt>
      <trkpt lat="51.229105281216" lon="4.482830137673">
        <ele>5.8</ele>
        <time>2020-06-26T19:37:35Z</time>
      </trkpt>
      <trkpt lat="51.229651026725" lon="4.482890319715">
        <ele>16</ele>
        <time>2020-06-26T19:37:53Z</time>
      </trkpt>
      <trkpt lat="51.230198700071" lon="4.483148817511">
        <ele>7</ele>
        <time>2020-06-26T19:38:08Z</time>
      </trkpt>
      <trkpt lat="51.23074528377" lon="4.483318970081">
        <ele>4.4</ele>
        <time>2020-06-26T19:38:28Z</time>
      </trkpt>
      <trkpt lat="51.231306619613" lon="4.483412679723">
        <ele>3.6</ele>
        <time>2020-06-26T19:38:47Z</time>
      </trkpt>
      <trkpt lat="51.231848509448" lon="4.483451739377">
        <ele>1.4</ele>
        <time>2020-06-26T19:39:06Z</time>
      </trkpt>
      <trkpt lat="51.232362655194" lon="4.48362247868">
        <ele>0.2</ele>
        <time>2020-06-26T19:39:27Z</time>
      </trkpt>
      <trkpt lat="51.232452257705" lon="4.484460920137">
        <ele>7.4</ele>
        <time>2020-06-26T19:39:51Z</time>
      </trkpt>
      <trkpt lat="51.232517468887" lon="4.485329452615">
        <ele>5</ele>
        <time>2020-06-26T19:40:11Z</time>
      </trkpt>
      <trkpt lat="51.232598605679" lon="4.486229501037">
        <ele>4</ele>
        <time>2020-06-26T19:40:28Z</time>
      </trkpt>
      <trkpt lat="51.232654764409" lon="4.487096273316">
        <ele>3.6</ele>
        <time>2020-06-26T19:40:47Z</time>
      </trkpt>
      <trkpt lat="51.232730704423" lon="4.487989700037">
        <ele>3.6</ele>
        <time>2020-06-26T19:41:05Z</time>
      </trkpt>
      <trkpt lat="51.232829443205" lon="4.488870721546">
        <ele>3.4</ele>
        <time>2020-06-26T19:41:23Z</time>
      </trkpt>
      <trkpt lat="51.232890714894" lon="4.489734224884">
        <ele>3</ele>
        <time>2020-06-26T19:41:42Z</time>
      </trkpt>
      <trkpt lat="51.232982748156" lon="4.490591357978">
        <ele>2.6</ele>
        <time>2020-06-26T19:42:05Z</time>
      </trkpt>
      <trkpt lat="51.233227499636" lon="4.491367102823">
        <ele>1.2</ele>
        <time>2020-06-26T19:42:25Z</time>
      </trkpt>
      <trkpt lat="51.2335171781" lon="4.492103704195">
        <ele>4</ele>
        <time>2020-06-26T19:42:46Z</time>
      </trkpt>
      <trkpt lat="51.233849268978" lon="4.492822955034">
        <ele>1.2</ele>
        <time>2020-06-26T19:43:06Z</time>
      </trkpt>
      <trkpt lat="51.234335335359" lon="4.492497150581">
        <ele>0</ele>
        <time>2020-06-26T19:43:24Z</time>
      </trkpt>
      <trkpt lat="51.234795753126" lon="4.492014604598">
        <ele>3.6</ele>
        <time>2020-06-26T19:43:41Z</time>
      </trkpt>
      <trkpt lat="51.235323058455" lon="4.492069841319">
        <ele>6.6</ele>
        <time>2020-06-26T19:43:57Z</time>
      </trkpt>
      <trkpt lat="51.235494971224" lon="4.492182829331">
        <ele>5.8</ele>
        <time>2020-06-26T19:44:07Z</time>
      </trkpt>
      <trkpt lat="51.235544927348" lon="4.492517267141">
        <ele>1.2</ele>
        <time>2020-06-26T19:44:46Z</time>
      </trkpt>
      <trkpt lat="51.235611228177" lon="4.492563870505">
        <ele>3</ele>
        <time>2020-06-26T19:44:52Z</time>
      </trkpt>
      <trkpt lat="51.235705524552" lon="4.492563786686">
        <ele>3.2</ele>
        <time>2020-06-26T19:44:57Z</time>
      </trkpt>
      <trkpt lat="51.235976176103" lon="4.491797848664">
        <ele>0</ele>
        <time>2020-06-26T19:45:21Z</time>
      </trkpt>
      <trkpt lat="51.236250934785" lon="4.491051859564">
        <ele>0</ele>
        <time>2020-06-26T19:45:43Z</time>
      </trkpt>
      <trkpt lat="51.236334083233" lon="4.49051407686">
        <ele>0</ele>
        <time>2020-06-26T19:46:04Z</time>
      </trkpt>
      <trkpt lat="51.236336430165" lon="4.49044785985">
        <ele>0.8</ele>
        <time>2020-06-26T19:46:37Z</time>
      </trkpt>
      <trkpt lat="51.236398288587" lon="4.489626936564">
        <ele>1.4</ele>
        <time>2020-06-26T19:46:57Z</time>
      </trkpt>
      <trkpt lat="51.23642821197" lon="4.489577064259">
        <ele>1.4</ele>
        <time>2020-06-26T19:46:59Z</time>
      </trkpt>
      <trkpt lat="51.236450340186" lon="4.488695875112">
        <ele>0</ele>
        <time>2020-06-26T19:47:22Z</time>
      </trkpt>
      <trkpt lat="51.236407005763" lon="4.487818290182">
        <ele>0</ele>
        <time>2020-06-26T19:47:40Z</time>
      </trkpt>
      <trkpt lat="51.236377501475" lon="4.486943638917">
        <ele>0</ele>
        <time>2020-06-26T19:47:58Z</time>
      </trkpt>
      <trkpt lat="51.236366605005" lon="4.486079800303">
        <ele>0</ele>
        <time>2020-06-26T19:48:16Z</time>
      </trkpt>
      <trkpt lat="51.236356462906" lon="4.485213447119">
        <ele>0</ele>
        <time>2020-06-26T19:48:38Z</time>
      </trkpt>
      <trkpt lat="51.236321510383" lon="4.484303172779">
        <ele>0</ele>
        <time>2020-06-26T19:48:55Z</time>
      </trkpt>
      <trkpt lat="51.236300471814" lon="4.483406980031">
        <ele>0</ele>
        <time>2020-06-26T19:49:11Z</time>
      </trkpt>
      <trkpt lat="51.236273230639" lon="4.482508105075">
        <ele>0.4</ele>
        <time>2020-06-26T19:49:29Z</time>
      </trkpt>
      <trkpt lat="51.236307764067" lon="4.481603111332">
        <ele>0</ele>
        <time>2020-06-26T19:49:46Z</time>
      </trkpt>
      <trkpt lat="51.23633936383" lon="4.480708846421">
        <ele>0</ele>
        <time>2020-06-26T19:50:05Z</time>
      </trkpt>
      <trkpt lat="51.236384374633" lon="4.479809049456">
        <ele>0</ele>
        <time>2020-06-26T19:50:22Z</time>
      </trkpt>
      <trkpt lat="51.236392588895" lon="4.478940181702">
        <ele>0</ele>
        <time>2020-06-26T19:50:38Z</time>
      </trkpt>
      <trkpt lat="51.236307177334" lon="4.478057567632">
        <ele>0</ele>
        <time>2020-06-26T19:50:55Z</time>
      </trkpt>
      <trkpt lat="51.236202571222" lon="4.477303280451">
        <ele>0</ele>
        <time>2020-06-26T19:51:10Z</time>
      </trkpt>
      <trkpt lat="51.236007775866" lon="4.476467269745">
        <ele>0</ele>
        <time>2020-06-26T19:51:26Z</time>
      </trkpt>
      <trkpt lat="51.235835108726" lon="4.47565045359">
        <ele>0</ele>
        <time>2020-06-26T19:51:42Z</time>
      </trkpt>
      <trkpt lat="51.235679289205" lon="4.474781334379">
        <ele>2</ele>
        <time>2020-06-26T19:52:00Z</time>
      </trkpt>
      <trkpt lat="51.235505029504" lon="4.47394054599">
        <ele>3.2</ele>
        <time>2020-06-26T19:52:19Z</time>
      </trkpt>
      <trkpt lat="51.235318280772" lon="4.473090034597">
        <ele>4.8</ele>
        <time>2020-06-26T19:52:37Z</time>
      </trkpt>
      <trkpt lat="51.235150139858" lon="4.472246564">
        <ele>5.2</ele>
        <time>2020-06-26T19:52:54Z</time>
      </trkpt>
      <trkpt lat="51.234983842962" lon="4.471401752299">
        <ele>5.2</ele>
        <time>2020-06-26T19:53:14Z</time>
      </trkpt>
      <trkpt lat="51.234847301811" lon="4.47056683124">
        <ele>4.6</ele>
        <time>2020-06-26T19:53:32Z</time>
      </trkpt>
      <trkpt lat="51.234703468407" lon="4.469700813332">
        <ele>5.4</ele>
        <time>2020-06-26T19:53:51Z</time>
      </trkpt>
      <trkpt lat="51.23457162112" lon="4.468851475405">
        <ele>4.6</ele>
        <time>2020-06-26T19:54:07Z</time>
      </trkpt>
      <trkpt lat="51.234440947299" lon="4.467966598222">
        <ele>3.8</ele>
        <time>2020-06-26T19:54:25Z</time>
      </trkpt>
      <trkpt lat="51.234276913516" lon="4.467113572259">
        <ele>5.8</ele>
        <time>2020-06-26T19:54:43Z</time>
      </trkpt>
      <trkpt lat="51.234173983784" lon="4.466254176052">
        <ele>5</ele>
        <time>2020-06-26T19:54:59Z</time>
      </trkpt>
      <trkpt lat="51.234061079591" lon="4.465379189511">
        <ele>4.4</ele>
        <time>2020-06-26T19:55:18Z</time>
      </trkpt>
      <trkpt lat="51.233920263671" lon="4.464537562932">
        <ele>3</ele>
        <time>2020-06-26T19:55:36Z</time>
      </trkpt>
      <trkpt lat="51.233772323136" lon="4.463693924697">
        <ele>2.6</ele>
        <time>2020-06-26T19:55:52Z</time>
      </trkpt>
      <trkpt lat="51.23373091655" lon="4.463327551848">
        <ele>3.2</ele>
        <time>2020-06-26T19:55:59Z</time>
      </trkpt>
      <trkpt lat="51.233575097029" lon="4.462473017143">
        <ele>2.4</ele>
        <time>2020-06-26T19:56:18Z</time>
      </trkpt>
      <trkpt lat="51.233461773741" lon="4.461616554601">
        <ele>2.4</ele>
        <time>2020-06-26T19:56:34Z</time>
      </trkpt>
      <trkpt lat="51.233355323611" lon="4.460763528638">
        <ele>3</ele>
        <time>2020-06-26T19:56:51Z</time>
      </trkpt>
      <trkpt lat="51.233212328397" lon="4.459932295615">
        <ele>4.4</ele>
        <time>2020-06-26T19:57:08Z</time>
      </trkpt>
      <trkpt lat="51.233159857703" lon="4.45952786894">
        <ele>2.6</ele>
        <time>2020-06-26T19:57:15Z</time>
      </trkpt>
      <trkpt lat="51.233009402598" lon="4.45868884075">
        <ele>0</ele>
        <time>2020-06-26T19:57:31Z</time>
      </trkpt>
      <trkpt lat="51.232826258083" lon="4.45783472514">
        <ele>0</ele>
        <time>2020-06-26T19:57:49Z</time>
      </trkpt>
      <trkpt lat="51.23268820819" lon="4.457058812657">
        <ele>0</ele>
        <time>2020-06-26T19:58:12Z</time>
      </trkpt>
      <trkpt lat="51.232680580661" lon="4.457057052458">
        <ele>0.8</ele>
        <time>2020-06-26T19:58:47Z</time>
      </trkpt>
      <trkpt lat="51.232646131052" lon="4.457020591193">
        <ele>1</ele>
        <time>2020-06-26T19:58:50Z</time>
      </trkpt>
      <trkpt lat="51.232132907315" lon="4.456673161438">
        <ele>0.2</ele>
        <time>2020-06-26T19:59:13Z</time>
      </trkpt>
      <trkpt lat="51.231626305279" lon="4.456298239051">
        <ele>3.2</ele>
        <time>2020-06-26T19:59:33Z</time>
      </trkpt>
      <trkpt lat="51.231313660409" lon="4.455895907851">
        <ele>1.6</ele>
        <time>2020-06-26T19:59:47Z</time>
      </trkpt>
      <trkpt lat="51.231195559438" lon="4.455029051753">
        <ele>0.8</ele>
        <time>2020-06-26T20:00:06Z</time>
      </trkpt>
      <trkpt lat="51.231072345508" lon="4.45417937855">
        <ele>2.4</ele>
        <time>2020-06-26T20:00:27Z</time>
      </trkpt>
      <trkpt lat="51.230925159344" lon="4.453312606271">
        <ele>2.8</ele>
        <time>2020-06-26T20:00:47Z</time>
      </trkpt>
      <trkpt lat="51.230813428617" lon="4.452430327477">
        <ele>6.6</ele>
        <time>2020-06-26T20:01:08Z</time>
      </trkpt>
      <trkpt lat="51.230672025964" lon="4.451590964011">
        <ele>10</ele>
        <time>2020-06-26T20:01:22Z</time>
      </trkpt>
      <trkpt lat="51.230476308599" lon="4.450756964961">
        <ele>5</ele>
        <time>2020-06-26T20:01:41Z</time>
      </trkpt>
      <trkpt lat="51.229720009762" lon="4.450938265458">
        <ele>0.2</ele>
        <time>2020-06-26T20:02:06Z</time>
      </trkpt>
      <trkpt lat="51.229567375363" lon="4.45007308574">
        <ele>2</ele>
        <time>2020-06-26T20:02:25Z</time>
      </trkpt>
      <trkpt lat="51.229459081215" lon="4.449207486927">
        <ele>4</ele>
        <time>2020-06-26T20:02:43Z</time>
      </trkpt>
      <trkpt lat="51.2293513738" lon="4.448894003867">
        <ele>4</ele>
        <time>2020-06-26T20:02:52Z</time>
      </trkpt>
      <trkpt lat="51.229323210616" lon="4.448925435992">
        <ele>6.2</ele>
        <time>2020-06-26T20:02:54Z</time>
      </trkpt>
      <trkpt lat="51.228905708177" lon="4.449495991925">
        <ele>10.2</ele>
        <time>2020-06-26T20:03:24Z</time>
      </trkpt>
      <trkpt lat="51.228483930969" lon="4.450049532601">
        <ele>13</ele>
        <time>2020-06-26T20:03:47Z</time>
      </trkpt>
      <trkpt lat="51.228109343858" lon="4.449682237743">
        <ele>5.2</ele>
        <time>2020-06-26T20:04:16Z</time>
      </trkpt>
      <trkpt lat="51.22789376139" lon="4.449214360085">
        <ele>1.2</ele>
        <time>2020-06-26T20:04:34Z</time>
      </trkpt>
      <trkpt lat="51.228275221659" lon="4.448602481385">
        <ele>3.8</ele>
        <time>2020-06-26T20:04:56Z</time>
      </trkpt>
      <trkpt lat="51.228373708984" lon="4.448420929431">
        <ele>4</ele>
        <time>2020-06-26T20:05:00Z</time>
      </trkpt>
      <trkpt lat="51.228796994934" lon="4.447911477549">
        <ele>2.6</ele>
        <time>2020-06-26T20:05:18Z</time>
      </trkpt>
      <trkpt lat="51.228979049802" lon="4.448605079774">
        <ele>1.2</ele>
        <time>2020-06-26T20:05:39Z</time>
      </trkpt>
      <trkpt lat="51.228612509315" lon="4.449230453333">
        <ele>0.2</ele>
        <time>2020-06-26T20:05:54Z</time>
      </trkpt>
      <trkpt lat="51.22849642" lon="4.449304968424">
        <ele>0</ele>
        <time>2020-06-26T20:06:04Z</time>
      </trkpt>
    </trkseg>
  </trk>
</gpx>